Time;durP1;ratioP1;P1;durP2;ratioP2;P2;SDS_P1;SDS_P2;PMS_P1;PMS_P2;Temp;Humidity;BMP_temperature;BMP_pressure;BME280_temperature;BME280_humidity;BME280_pressure;Samples;Min_cycle;Max_cycle;Signal;HPM_P1;HPM_P2
2023/11/11 00:01:53;;;;;;;55.20;32.60;;;;;;;7.28;99.40;99343.92;106003;1257;99707;-78
2023/11/11 00:04:38;;;;;;;55.20;33.00;;;;;;;7.29;99.42;99342.58;106133;1257;102727;-79
2023/11/11 00:07:24;;;;;;;56.70;34.00;;;;;;;7.30;99.73;99344.92;105957;1254;101099;-79
2023/11/11 00:10:11;;;;;;;48.80;30.50;;;;;;;7.30;100.00;99341.92;105908;1257;98053;-80
2023/11/11 00:12:57;;;;;;;45.90;29.40;;;;;;;7.30;100.00;99337.66;106002;1253;98606;-78
2023/11/11 00:15:43;;;;;;;48.80;30.90;;;;;;;7.31;100.00;99337.89;106060;1254;97890;-79
2023/11/11 00:18:29;;;;;;;48.00;29.30;;;;;;;7.32;100.00;99334.58;106050;1266;101767;-80
2023/11/11 00:21:15;;;;;;;45.20;27.40;;;;;;;7.32;100.00;99339.29;106527;1257;100391;-80
2023/11/11 00:24:00;;;;;;;47.30;28.40;;;;;;;7.32;100.00;99342.03;106850;1254;99404;-80
2023/11/11 00:26:49;;;;;;;45.50;28.70;;;;;;;7.32;100.00;99338.51;106937;1257;98722;-80
2023/11/11 00:29:34;;;;;;;47.80;28.50;;;;;;;7.33;100.00;99332.66;106647;1254;97826;-80
2023/11/11 00:32:20;;;;;;;39.00;25.50;;;;;;;7.34;100.00;99329.34;106623;1253;102327;-80
2023/11/11 00:35:08;;;;;;;39.90;26.40;;;;;;;7.35;100.00;99329.09;106437;1254;100672;-77
2023/11/11 00:37:54;;;;;;;38.90;25.40;;;;;;;7.35;100.00;99326.59;106412;1254;97957;-77
2023/11/11 00:40:40;;;;;;;43.20;26.90;;;;;;;7.35;100.00;99321.92;105638;1257;98057;-78
2023/11/11 00:43:26;;;;;;;38.00;24.50;;;;;;;7.36;100.00;99318.07;105641;1254;98600;-78
2023/11/11 00:46:12;;;;;;;40.40;27.00;;;;;;;7.36;100.00;99315.73;105572;1257;101464;-77
2023/11/11 00:48:59;;;;;;;43.40;25.70;;;;;;;7.36;100.00;99313.90;105969;1259;99165;-79
2023/11/11 00:51:45;;;;;;;41.40;25.60;;;;;;;7.36;100.00;99316.41;106099;1257;97973;-78
2023/11/11 00:54:32;;;;;;;40.60;25.60;;;;;;;7.36;100.00;99316.84;106094;1253;97910;-78
2023/11/11 00:57:18;;;;;;;41.70;25.80;;;;;;;7.35;100.00;99318.12;106047;1253;97963;-79
2023/11/11 01:00:10;;;;;;;41.00;25.20;;;;;;;7.36;100.00;99320.05;105828;1257;103035;-79
2023/11/11 01:02:56;;;;;;;;;;;;;;;7.36;100.00;99314.67;106086;1257;99067;-80
2023/11/11 01:05:42;;;;;;;44.40;25.40;;;;;;;7.35;100.00;99309.27;105978;1253;99240;-79
2023/11/11 01:08:27;;;;;;;38.00;25.60;;;;;;;7.36;100.00;99302.83;105915;1253;97951;-79
2023/11/11 01:11:14;;;;;;;45.80;27.30;;;;;;;7.35;100.00;99303.61;106114;1259;98833;-79
2023/11/11 01:14:00;;;;;;;45.70;27.50;;;;;;;7.36;100.00;99306.55;106132;1253;102605;-79
2023/11/11 01:16:47;;;;;;;50.40;28.60;;;;;;;7.37;100.00;99308.73;105982;1257;99789;-78
2023/11/11 01:19:33;;;;;;;44.00;26.60;;;;;;;7.37;100.00;99305.99;106158;1253;99608;-78
2023/11/11 01:22:19;;;;;;;44.80;25.70;;;;;;;7.37;100.00;99299.36;106073;1254;98005;-79
2023/11/11 01:25:07;;;;;;;39.30;25.60;;;;;;;7.37;100.00;99291.77;106773;1253;98024;-79
2023/11/11 01:27:53;;;;;;;42.30;26.10;;;;;;;7.38;100.00;99292.92;106074;1261;101423;-79
2023/11/11 01:30:38;;;;;;;44.10;24.50;;;;;;;7.38;100.00;99295.88;106706;1257;99867;-78
2023/11/11 01:33:24;;;;;;;35.10;24.50;;;;;;;7.38;100.00;99293.38;106211;1257;98416;-79
2023/11/11 01:36:11;;;;;;;36.50;23.40;;;;;;;7.38;100.00;99290.75;106152;1258;97960;-79
2023/11/11 01:38:57;;;;;;;37.20;24.70;;;;;;;7.38;100.00;99284.73;106212;1259;98032;-78
2023/11/11 01:41:42;;;;;;;42.10;24.80;;;;;;;7.39;100.00;99278.63;106221;1253;101464;-79
2023/11/11 01:44:29;;;;;;;39.20;24.80;;;;;;;7.39;100.00;99279.33;106178;1257;99865;-79
2023/11/11 01:47:15;;;;;;;44.60;25.30;;;;;;;7.37;100.00;99279.72;106111;1253;98379;-79
2023/11/11 01:50:01;;;;;;;38.60;24.00;;;;;;;7.34;100.00;99277.46;106172;1257;97916;-79
2023/11/11 01:52:47;;;;;;;36.70;24.40;;;;;;;7.32;100.00;99277.50;106092;1257;98406;-79
2023/11/11 01:55:33;;;;;;;46.10;25.70;;;;;;;7.32;100.00;99274.24;106213;1257;102191;-79
2023/11/11 01:58:21;;;;;;;40.10;24.60;;;;;;;7.32;100.00;99274.91;106784;1255;100398;-80
2023/11/11 02:01:07;;;;;;;39.50;22.60;;;;;;;7.32;100.00;99278.43;105594;1276;98855;-77
2023/11/11 02:03:53;;;;;;;42.60;24.40;;;;;;;7.32;100.00;99283.02;105591;1256;97954;-78
2023/11/11 02:06:40;;;;;;;38.10;23.50;;;;;;;7.31;100.00;99282.81;105645;1253;98485;-78
2023/11/11 02:09:25;;;;;;;35.30;24.50;;;;;;;7.30;100.00;99280.60;105584;1253;101348;-78
2023/11/11 02:12:11;;;;;;;41.40;24.80;;;;;;;7.30;100.00;99278.54;105622;1253;99314;-78
2023/11/11 02:14:57;;;;;;;37.20;25.50;;;;;;;7.29;100.00;99281.81;105818;1257;98691;-78
2023/11/11 02:17:42;;;;;;;35.50;24.10;;;;;;;7.29;100.00;99285.21;106134;1253;98427;-79
2023/11/11 02:20:32;;;;;;;35.60;25.00;;;;;;;7.29;100.00;99283.61;106121;1257;98377;-78
2023/11/11 02:23:19;;;;;;;38.40;24.30;;;;;;;7.29;100.00;99278.87;106171;1257;101348;-78
2023/11/11 02:26:05;;;;;;;38.10;24.40;;;;;;;7.28;100.00;99274.60;106254;1253;100218;-78
2023/11/11 02:28:51;;;;;;;36.20;22.20;;;;;;;7.26;100.00;99273.23;106117;1253;98719;-79
2023/11/11 02:31:37;;;;;;;36.70;25.10;;;;;;;7.24;100.00;99274.00;106016;1253;98043;-78
2023/11/11 02:34:23;;;;;;;36.90;23.50;;;;;;;7.21;100.00;99278.42;106077;1255;98399;-79
2023/11/11 02:37:08;;;;;;;36.40;24.70;;;;;;;7.21;100.00;99279.39;106119;1270;101441;-79
2023/11/11 02:39:54;;;;;;;36.00;25.20;;;;;;;7.21;100.00;99279.65;106231;1257;99125;-78
2023/11/11 02:42:41;;;;;;;38.70;24.20;;;;;;;7.22;100.00;99275.67;106104;1257;98023;-78
2023/11/11 02:45:26;;;;;;;35.20;24.80;;;;;;;7.22;100.00;99278.84;106079;1254;97982;-78
2023/11/11 02:48:11;;;;;;;42.30;25.40;;;;;;;7.22;100.00;99280.48;105974;1259;98379;-78
2023/11/11 02:50:57;;;;;;;38.10;23.90;;;;;;;7.23;100.00;99285.80;106009;1254;102135;-78
2023/11/11 02:53:43;;;;;;;40.00;24.30;;;;;;;7.25;100.00;99276.88;106174;1253;99378;-79
2023/11/11 02:56:29;;;;;;;38.70;25.20;;;;;;;7.27;100.00;99270.45;106008;1254;98732;-78
2023/11/11 02:59:15;;;;;;;38.70;25.10;;;;;;;7.27;100.00;99271.24;106069;1256;97953;-79
2023/11/11 03:02:00;;;;;;;40.50;23.60;;;;;;;7.29;100.00;99277.76;106088;1254;98022;-79
2023/11/11 03:04:45;;;;;;;39.10;23.70;;;;;;;7.31;100.00;99277.20;105971;1259;101885;-78
2023/11/11 03:07:32;;;;;;;37.00;22.40;;;;;;;7.32;100.00;99274.05;106108;1257;99074;-79
2023/11/11 03:10:18;;;;;;;33.70;21.80;;;;;;;7.32;100.00;99274.67;105998;1271;98794;-78
2023/11/11 03:13:04;;;;;;;33.20;20.70;;;;;;;7.33;100.00;99275.36;106034;1253;97924;-77
2023/11/11 03:15:50;;;;;;;30.20;22.70;;;;;;;7.33;100.00;99274.58;106193;1253;98540;-78
2023/11/11 03:18:35;;;;;;;33.20;21.70;;;;;;;7.34;100.00;99269.18;106145;1253;101329;-78
2023/11/11 03:21:21;;;;;;;37.20;23.40;;;;;;;7.33;100.00;99265.17;106175;1253;100875;-78
2023/11/11 03:24:07;;;;;;;36.70;21.70;;;;;;;7.33;100.00;99263.93;106966;1253;98362;-78
2023/11/11 03:26:52;;;;;;;34.00;22.30;;;;;;;7.34;100.00;99259.68;106112;1253;97972;-78
2023/11/11 03:29:38;;;;;;;34.50;23.20;;;;;;;7.35;100.00;99254.10;106211;1253;97899;-78
2023/11/11 03:32:24;;;;;;;33.10;22.20;;;;;;;7.33;100.00;99249.39;106067;1259;101422;-79
2023/11/11 03:35:11;;;;;;;38.10;23.60;;;;;;;7.31;100.00;99249.39;106150;1253;100415;-78
2023/11/11 03:37:57;;;;;;;35.00;23.00;;;;;;;7.31;100.00;99247.70;106142;1257;97877;-79
2023/11/11 03:40:43;;;;;;;35.40;23.90;;;;;;;7.31;100.00;99245.44;106221;1258;97975;-79
2023/11/11 03:43:29;;;;;;;36.30;23.30;;;;;;;7.29;100.00;99244.54;106072;1253;97849;-78
2023/11/11 03:46:15;;;;;;;37.40;24.10;;;;;;;7.28;100.00;99247.14;106236;1253;102694;-78
2023/11/11 03:49:01;;;;;;;37.40;24.00;;;;;;;7.27;100.00;99243.17;106302;1253;100516;-79
2023/11/11 03:51:46;;;;;;;36.80;23.20;;;;;;;7.27;100.00;99237.05;106102;1254;97973;-79
2023/11/11 03:54:32;;;;;;;38.20;24.50;;;;;;;7.24;100.00;99231.64;106182;1253;97877;-79
2023/11/11 03:57:17;;;;;;;36.20;23.20;;;;;;;7.23;100.00;99228.12;106089;1256;98431;-78
2023/11/11 04:00:17;;;;;;;38.10;24.20;;;;;;;7.23;100.00;99224.20;106086;1253;102182;-78
2023/11/11 04:03:03;;;;;;;42.00;25.00;;;;;;;7.22;100.00;99225.73;106134;1257;100339;-79
2023/11/11 04:05:49;;;;;;;40.10;26.50;;;;;;;7.20;100.00;99223.18;106096;1253;97969;-79
2023/11/11 04:08:36;;;;;;;35.80;24.80;;;;;;;7.19;100.00;99223.58;106042;1257;98005;-79
2023/11/11 04:11:23;;;;;;;43.20;26.90;;;;;;;7.17;100.00;99222.48;106503;1253;98470;-79
2023/11/11 04:14:08;;;;;;;41.80;27.70;;;;;;;7.17;100.00;99221.33;106026;1253;101457;-79
2023/11/11 04:16:54;;;;;;;39.90;27.50;;;;;;;7.15;100.00;99215.10;106080;1259;99061;-79
2023/11/11 04:19:40;;;;;;;42.90;26.90;;;;;;;7.14;100.00;99217.06;106006;1254;97966;-79
2023/11/11 04:22:26;;;;;;;40.20;26.30;;;;;;;7.12;100.00;99214.42;106096;1258;98037;-78
2023/11/11 04:25:12;;;;;;;39.60;25.40;;;;;;;7.11;100.00;99211.80;105866;1258;98870;-77
2023/11/11 04:27:58;;;;;;;39.90;25.50;;;;;;;7.10;100.00;99212.77;105676;1259;102151;-78
2023/11/11 04:30:43;;;;;;;39.80;24.80;;;;;;;7.10;100.00;99213.19;105786;1257;99982;-78
2023/11/11 04:33:29;;;;;;;38.00;25.00;;;;;;;7.10;100.00;99210.19;105682;1258;97935;-78
2023/11/11 04:36:14;;;;;;;39.10;24.60;;;;;;;7.08;100.00;99208.95;105687;1253;97973;-78
2023/11/11 04:39:00;;;;;;;38.70;25.70;;;;;;;7.09;100.00;99206.05;105497;1254;98504;-78
2023/11/11 04:41:47;;;;;;;44.00;29.10;;;;;;;7.10;100.00;99205.89;105525;1253;102419;-77
2023/11/11 04:44:33;;;;;;;41.70;28.60;;;;;;;7.11;100.00;99207.70;105528;1259;99851;-78
2023/11/11 04:47:20;;;;;;;42.20;27.70;;;;;;;7.11;100.00;99208.73;105547;1257;97892;-77
2023/11/11 04:50:06;;;;;;;37.80;26.30;;;;;;;7.10;100.00;99212.11;105998;1253;98049;-79
2023/11/11 04:52:53;;;;;;;43.20;26.40;;;;;;;7.09;100.00;99214.41;106116;1253;98530;-78
2023/11/11 04:55:38;;;;;;;37.90;25.70;;;;;;;7.07;100.00;99211.46;106081;1258;101388;-78
2023/11/11 04:58:24;;;;;;;39.70;25.40;;;;;;;7.06;100.00;99211.61;106105;1258;99385;-78
2023/11/11 05:01:11;;;;;;;37.20;25.00;;;;;;;7.05;100.00;99210.75;106135;1253;99030;-85
2023/11/11 05:03:58;;;;;;;37.00;26.30;;;;;;;7.05;100.00;99211.48;106440;1253;97940;-86
2023/11/11 05:06:45;;;;;;;39.30;26.90;;;;;;;7.06;100.00;99211.29;106443;1259;98243;-85
2023/11/11 05:09:30;;;;;;;37.20;25.30;;;;;;;7.05;100.00;99214.88;106305;1260;102725;-83
2023/11/11 05:12:17;;;;;;;33.10;23.40;;;;;;;7.04;100.00;99214.13;106329;1257;100298;-86
2023/11/11 05:15:13;;;;;;;37.00;25.30;;;;;;;7.03;100.00;99213.52;106317;1256;100248;-84
2023/11/11 05:17:59;;;;;;;40.40;25.90;;;;;;;7.04;100.00;99208.98;106281;1260;98018;-84
2023/11/11 05:20:45;;;;;;;34.30;23.90;;;;;;;7.05;100.00;99209.40;106441;1257;98411;-84
2023/11/11 05:23:32;;;;;;;40.00;25.90;;;;;;;7.05;100.00;99208.50;106402;1254;102638;-84
2023/11/11 05:26:17;;;;;;;35.90;23.80;;;;;;;7.04;100.00;99208.24;106354;1253;100665;-85
2023/11/11 05:29:03;;;;;;;39.60;24.90;;;;;;;7.00;100.00;99211.42;106325;1253;98337;-85
2023/11/11 05:31:49;;;;;;;37.30;23.10;;;;;;;6.98;100.00;99210.95;106488;1258;97954;-84
2023/11/11 05:34:36;;;;;;;34.70;24.60;;;;;;;6.98;100.00;99209.40;106484;1253;98525;-86
2023/11/11 05:37:22;;;;;;;31.60;21.40;;;;;;;6.98;100.00;99212.02;106241;1259;101419;-84
2023/11/11 05:40:16;;;;;;;35.30;23.10;;;;;;;6.98;100.00;99212.85;106290;1254;99314;-84
2023/11/11 05:43:07;;;;;;;34.80;21.90;;;;;;;6.98;100.00;99214.60;106251;1258;97964;-83
2023/11/11 05:45:53;;;;;;;31.50;21.30;;;;;;;6.97;100.00;99212.84;106336;1253;98304;-86
2023/11/11 05:48:44;;;;;;;34.30;21.80;;;;;;;6.97;100.00;99213.38;106456;1253;97870;-86
2023/11/11 05:51:30;;;;;;;37.00;22.60;;;;;;;6.97;100.00;99211.04;106482;1259;102318;-87
2023/11/11 05:54:16;;;;;;;40.70;26.30;;;;;;;6.98;100.00;99216.23;106232;1260;101084;-85
2023/11/11 05:57:01;;;;;;;37.10;25.90;;;;;;;6.98;100.00;99216.77;106225;1253;97793;-84
2023/11/11 05:59:46;;;;;;;39.50;24.90;;;;;;;6.97;100.00;99220.41;106350;1254;98032;-83
2023/11/11 06:02:32;;;;;;;39.40;25.40;;;;;;;6.97;100.00;99223.04;106340;1253;98071;-81
2023/11/11 06:05:18;;;;;;;39.90;26.10;;;;;;;6.95;100.00;99228.95;106346;1259;102280;-82
2023/11/11 06:08:04;;;;;;;35.00;23.50;;;;;;;6.92;100.00;99230.52;106303;1254;99154;-84
2023/11/11 06:10:50;;;;;;;35.20;24.40;;;;;;;6.92;100.00;99235.17;106110;1253;98140;-84
2023/11/11 06:13:35;;;;;;;36.30;24.40;;;;;;;6.91;100.00;99233.39;106179;1253;99311;-82
2023/11/11 06:16:21;;;;;;;35.10;23.20;;;;;;;6.90;100.00;99233.68;106267;1254;98123;-84
2023/11/11 06:19:07;;;;;;;39.50;23.50;;;;;;;6.90;100.00;99235.20;106285;1259;102358;-83
2023/11/11 06:21:53;;;;;;;39.30;25.00;;;;;;;6.92;100.00;99238.58;106209;1259;99953;-83
2023/11/11 06:24:39;;;;;;;40.70;25.10;;;;;;;6.94;100.00;99242.03;106506;1253;99156;-82
2023/11/11 06:27:25;;;;;;;41.70;26.40;;;;;;;6.96;100.00;99242.31;106360;1256;98042;-82
2023/11/11 06:30:12;;;;;;;41.60;26.10;;;;;;;6.96;100.00;99239.59;106203;1253;98539;-82
2023/11/11 06:32:59;;;;;;;35.30;25.20;;;;;;;6.96;100.00;99234.16;106134;1253;102191;-82
2023/11/11 06:35:46;;;;;;;38.50;23.80;;;;;;;6.94;100.00;99234.36;106261;1259;99143;-82
2023/11/11 06:38:32;;;;;;;39.00;25.10;;;;;;;6.94;100.00;99231.71;106162;1258;99055;-84
2023/11/11 06:41:19;;;;;;;37.00;24.10;;;;;;;6.95;100.00;99226.50;106238;1259;98617;-82
2023/11/11 06:44:06;;;;;;;33.90;22.40;;;;;;;6.96;100.00;99224.17;106417;1254;98033;-83
2023/11/11 06:46:52;;;;;;;35.80;21.90;;;;;;;6.97;100.00;99222.67;106270;1253;102719;-85
2023/11/11 06:49:37;;;;;;;36.30;24.20;;;;;;;6.97;100.00;99224.23;106452;1261;100083;-80
2023/11/11 06:52:23;;;;;;;37.30;24.40;;;;;;;6.97;100.00;99225.74;106569;1253;98537;-82
2023/11/11 06:55:10;;;;;;;35.90;23.20;;;;;;;7.00;100.00;99230.59;106358;1259;99236;-84
2023/11/11 06:57:56;;;;;;;39.10;24.00;;;;;;;7.01;100.00;99232.64;106372;1254;98712;-81
2023/11/11 07:00:47;;;;;;;37.50;23.80;;;;;;;7.03;100.00;99232.41;106478;1253;109951;-86
2023/11/11 07:03:35;;;;;;;33.60;21.40;;;;;;;7.05;100.00;99232.66;106500;1253;100358;-84
2023/11/11 07:06:24;;;;;;;39.40;23.60;;;;;;;7.08;100.00;99236.64;106424;1259;97864;-84
2023/11/11 07:09:12;;;;;;;38.70;24.50;;;;;;;7.12;100.00;99238.84;106237;1254;97937;-84
2023/11/11 07:11:57;;;;;;;38.70;23.80;;;;;;;7.15;100.00;99237.17;106498;1253;97923;-79
2023/11/11 07:14:47;;;;;;;39.00;24.70;;;;;;;7.19;100.00;99237.40;106407;1259;101445;-80
2023/11/11 07:17:32;;;;;;;39.80;26.80;;;;;;;7.23;100.00;99238.04;105815;1254;99384;-78
2023/11/11 07:20:18;;;;;;;40.30;25.20;;;;;;;7.27;100.00;99241.61;105678;1258;97969;-78
2023/11/11 07:23:04;;;;;;;40.00;24.20;;;;;;;7.31;100.00;99237.52;105711;1254;99254;-79
2023/11/11 07:25:50;;;;;;;39.60;26.30;;;;;;;7.34;100.00;99238.56;105759;1253;98459;-78
2023/11/11 07:28:35;;;;;;;42.50;26.60;;;;;;;7.38;100.00;99244.28;107999;1253;101376;-78
2023/11/11 07:31:22;;;;;;;43.70;27.80;;;;;;;7.41;100.00;99245.16;105718;1253;99177;-78
2023/11/11 07:34:08;;;;;;;47.40;28.70;;;;;;;7.44;100.00;99243.16;105877;1258;98978;-78
2023/11/11 07:36:53;;;;;;;47.80;27.70;;;;;;;7.47;100.00;99242.72;105583;1258;98073;-78
2023/11/11 07:39:39;;;;;;;44.00;29.90;;;;;;;7.51;100.00;99244.33;105724;1259;98467;-78
2023/11/11 07:42:25;;;;;;;45.90;31.40;;;;;;;7.55;100.00;99244.80;105658;1259;102709;-79
2023/11/11 07:45:11;;;;;;;55.70;36.40;;;;;;;7.59;100.00;99245.01;105587;1258;100453;-79
2023/11/11 07:47:57;;;;;;;64.90;43.70;;;;;;;7.64;100.00;99243.52;105623;1254;97864;-78
2023/11/11 07:50:42;;;;;;;61.20;38.30;;;;;;;7.67;100.00;99237.09;105669;1258;99030;-78
2023/11/11 07:53:28;;;;;;;51.70;32.20;;;;;;;7.69;100.00;99232.87;105696;1259;98892;-77
2023/11/11 07:56:14;;;;;;;51.30;32.90;;;;;;;7.69;100.00;99232.66;105777;1258;102581;-79
2023/11/11 07:59:00;;;;;;;48.90;33.20;;;;;;;7.71;100.00;99233.73;105638;1253;100275;-78
2023/11/11 08:01:46;;;;;;;55.40;35.80;;;;;;;7.74;100.00;99232.27;105556;1253;99173;-78
2023/11/11 08:04:32;;;;;;;52.60;32.90;;;;;;;7.76;100.00;99234.89;105664;1259;97884;-78
2023/11/11 08:07:20;;;;;;;52.70;33.90;;;;;;;7.78;100.00;99235.33;105640;1254;98388;-78
2023/11/11 08:10:06;;;;;;;49.00;32.70;;;;;;;7.81;100.00;99237.65;105587;1258;101330;-76
2023/11/11 08:12:52;;;;;;;49.30;31.50;;;;;;;7.85;100.00;99237.95;105722;1256;99161;-83
2023/11/11 08:15:38;;;;;;;58.40;33.60;;;;;;;7.87;100.00;99234.54;106162;1259;99141;-79
2023/11/11 08:18:24;;;;;;;47.40;32.00;;;;;;;7.88;100.00;99236.52;106561;1259;98060;-82
2023/11/11 08:21:10;;;;;;;59.80;35.10;;;;;;;7.90;100.00;99237.50;106377;1254;97819;-80
2023/11/11 08:23:56;;;;;;;55.10;31.90;;;;;;;7.94;100.00;99243.34;106703;1259;101390;-80
2023/11/11 08:26:42;;;;;;;53.90;35.60;;;;;;;7.98;100.00;99246.20;106020;1254;100340;-79
2023/11/11 08:29:27;;;;;;;52.90;33.00;;;;;;;8.02;100.00;99245.80;105928;1259;98697;-79
2023/11/11 08:32:13;;;;;;;54.20;33.60;;;;;;;8.06;100.00;99249.98;106147;1258;97980;-79
2023/11/11 08:34:58;;;;;;;50.70;33.50;;;;;;;8.08;100.00;99256.44;106047;1258;98488;-80
2023/11/11 08:37:45;;;;;;;48.90;33.50;;;;;;;8.11;100.00;99253.61;106618;1253;101520;-81
2023/11/11 08:40:32;;;;;;;51.80;33.50;;;;;;;8.13;100.00;99249.83;106154;1253;99317;-77
2023/11/11 08:43:17;;;;;;;56.00;34.60;;;;;;;8.16;100.00;99251.41;105931;1259;97859;-77
2023/11/11 08:46:03;;;;;;;53.40;32.80;;;;;;;8.19;100.00;99252.63;105600;1259;98846;-77
2023/11/11 08:48:51;;;;;;;55.20;34.30;;;;;;;8.21;100.00;99255.59;105670;1254;100265;-77
2023/11/11 08:51:37;;;;;;;57.30;33.70;;;;;;;8.24;100.00;99256.66;105665;1259;102702;-77
2023/11/11 08:54:22;;;;;;;54.10;33.00;;;;;;;8.27;100.00;99256.57;105547;1255;99834;-77
2023/11/11 08:57:08;;;;;;;57.00;34.30;;;;;;;8.30;100.00;99254.16;105764;1258;97951;-81
2023/11/11 08:59:53;;;;;;;60.30;34.10;;;;;;;8.34;100.00;99249.92;106523;1259;97965;-81
2023/11/11 09:02:39;;;;;;;52.40;34.00;;;;;;;8.36;100.00;99245.50;106483;1259;98595;-82
2023/11/11 09:05:26;;;;;;;58.10;33.90;;;;;;;8.40;100.00;99242.01;106307;1253;101345;-83
2023/11/11 09:08:13;;;;;;;55.90;34.60;;;;;;;8.43;100.00;99241.39;106294;1259;99696;-83
2023/11/11 09:10:59;;;;;;;56.00;32.80;;;;;;;8.46;100.00;99239.55;106193;1254;99065;-81
2023/11/11 09:13:44;;;;;;;58.40;33.00;;;;;;;8.49;100.00;99241.06;106304;1255;97955;-83
2023/11/11 09:16:32;;;;;;;54.90;30.90;;;;;;;8.52;100.00;99240.48;106200;1259;99269;-82
2023/11/11 09:19:18;;;;;;;53.50;31.00;;;;;;;8.56;100.00;99234.52;106340;1257;101405;-83
2023/11/11 09:22:04;;;;;;;54.90;30.20;;;;;;;8.60;100.00;99234.58;106097;1259;99231;-84
2023/11/11 09:24:51;;;;;;;56.50;30.60;;;;;;;8.61;100.00;99232.55;106018;1253;99052;-78
2023/11/11 09:27:37;;;;;;;55.70;29.70;;;;;;;8.63;100.00;99228.37;105589;1254;98577;-78
2023/11/11 09:30:23;;;;;;;53.10;28.80;;;;;;;8.64;100.00;99228.07;105612;1259;97983;-77
2023/11/11 09:33:08;;;;;;;52.60;29.10;;;;;;;8.63;100.00;99229.26;105675;1260;102141;-77
2023/11/11 09:35:55;;;;;;;55.40;29.60;;;;;;;8.64;100.00;99232.63;105764;1253;99055;-76
2023/11/11 09:38:41;;;;;;;54.30;29.60;;;;;;;8.66;100.00;99226.22;106166;1254;98643;-86
2023/11/11 09:41:45;;;;;;;50.50;28.50;;;;;;;8.65;100.00;99223.30;106249;1254;97870;-86
2023/11/11 09:44:49;;;;;;;58.40;29.90;;;;;;;8.66;100.00;99221.08;106493;1253;98533;-82
2023/11/11 09:47:40;;;;;;;50.10;29.40;;;;;;;8.69;100.00;99220.13;106153;1259;101298;-87
2023/11/11 09:50:26;;;;;;;;;;;;;;;8.72;100.00;99221.65;105554;1262;100316;-76
2023/11/11 09:53:13;;;;;;;45.90;27.30;;;;;;;8.71;100.00;99223.27;105724;1259;98984;-85
2023/11/11 09:56:01;;;;;;;51.10;27.30;;;;;;;8.72;100.00;99221.33;106524;1253;97886;-85
2023/11/11 09:58:49;;;;;;;52.00;28.70;;;;;;;8.73;100.00;99222.55;106078;1262;98035;-83
2023/11/11 10:01:37;;;;;;;48.80;29.20;;;;;;;8.75;100.00;99221.95;106877;1253;102644;-81
2023/11/11 10:04:24;;;;;;;50.50;29.50;;;;;;;8.75;100.00;99220.34;106673;1253;100455;-81
2023/11/11 10:07:10;;;;;;;51.10;31.40;;;;;;;8.75;100.00;99215.48;106783;1260;98934;-80
2023/11/11 10:09:57;;;;;;;55.70;31.70;;;;;;;8.75;100.00;99215.65;106366;1254;98037;-81
2023/11/11 10:12:42;;;;;;;59.00;33.50;;;;;;;8.75;100.00;99210.88;106262;1261;98470;-81
2023/11/11 10:15:28;;;;;;;59.30;33.40;;;;;;;8.74;100.00;99206.94;106294;1254;103022;-78
2023/11/11 10:18:14;;;;;;;65.40;35.60;;;;;;;8.71;100.00;99208.02;106366;1253;99205;-78
2023/11/11 10:21:00;;;;;;;67.20;36.30;;;;;;;8.67;100.00;99205.92;106481;1259;99044;-80
2023/11/11 10:23:50;;;;;;;68.50;36.70;;;;;;;8.63;100.00;99207.21;106837;1260;97927;-80
2023/11/11 10:26:39;;;;;;;70.50;37.10;;;;;;;8.58;100.00;99205.05;107006;1255;97899;-81
2023/11/11 10:29:24;;;;;;;64.50;34.60;;;;;;;8.56;100.00;99204.63;106626;1253;102624;-82
2023/11/11 10:32:10;;;;;;;69.50;36.10;;;;;;;8.56;100.00;99200.89;106328;1254;99076;-82
2023/11/11 10:34:58;;;;;;;74.20;38.60;;;;;;;8.57;100.00;99201.10;106441;1259;98574;-81
2023/11/11 10:37:46;;;;;;;77.00;40.40;;;;;;;8.57;100.00;99197.52;106149;1259;98003;-85
2023/11/11 10:40:34;;;;;;;67.30;37.40;;;;;;;8.59;100.00;99197.48;106030;1254;98421;-84
2023/11/11 10:43:19;;;;;;;63.10;34.40;;;;;;;8.61;100.00;99195.34;106088;1260;102669;-82
2023/11/11 10:46:06;;;;;;;65.20;33.90;;;;;;;8.62;100.00;99192.02;106124;1262;99742;-85
2023/11/11 10:48:52;;;;;;;59.20;32.60;;;;;;;8.63;100.00;99187.66;106143;1253;97950;-85
2023/11/11 10:51:40;;;;;;;63.50;31.70;;;;;;;8.64;100.00;99183.42;107853;1259;95896;-86
2023/11/11 10:54:28;;;;;;;52.80;29.80;;;;;;;8.64;100.00;99179.82;105947;1261;98015;-83
2023/11/11 10:57:16;;;;;;;53.20;29.50;;;;;;;8.66;100.00;99176.65;106123;1259;102635;-82
2023/11/11 11:00:04;;;;;;;55.80;30.10;;;;;;;8.66;100.00;99175.26;106111;1254;100866;-83
2023/11/11 11:02:56;;;;;;;56.70;30.50;;;;;;;8.66;100.00;99177.02;106314;1260;99184;-84
2023/11/11 11:06:13;;;;;;;57.00;30.90;;;;;;;8.71;100.00;99175.20;106111;1259;98011;-84
2023/11/11 11:09:22;;;;;;;58.20;30.20;;;;;;;8.75;100.00;99178.27;106156;1253;100019;-83
2023/11/11 11:12:38;;;;;;;55.10;29.60;;;;;;;8.79;100.00;99178.80;106063;1255;102998;-83
2023/11/11 11:15:26;;;;;;;53.60;28.80;;;;;;;8.83;100.00;99177.59;106141;1258;100441;-82
2023/11/11 11:18:11;;;;;;;52.80;28.90;;;;;;;8.86;100.00;99177.38;106097;1254;98007;-77
2023/11/11 11:20:57;;;;;;;49.50;28.20;;;;;;;8.87;100.00;99174.87;105726;1259;97845;-76
2023/11/11 11:23:43;;;;;;;55.10;27.90;;;;;;;8.89;100.00;99171.46;105692;1257;97914;-77
2023/11/11 11:26:31;;;;;;;49.20;29.50;;;;;;;8.90;100.00;99173.34;105636;1267;102644;-76
2023/11/11 11:29:20;;;;;;;48.10;28.50;;;;;;;8.92;100.00;99173.58;105604;1260;100555;-77
2023/11/11 11:32:10;;;;;;;47.20;28.50;;;;;;;8.94;100.00;99174.65;105656;1254;98475;-77
2023/11/11 11:35:26;;;;;;;47.10;29.10;;;;;;;8.94;100.00;99174.94;105659;1260;97948;-77
2023/11/11 11:38:11;;;;;;;48.00;28.90;;;;;;;8.95;100.00;99169.92;105649;1254;98467;-77
2023/11/11 11:41:09;;;;;;;50.60;29.80;;;;;;;8.93;100.00;99168.32;105524;1267;102650;-76
2023/11/11 11:43:56;;;;;;;50.80;29.60;;;;;;;8.93;100.00;99164.42;105477;1259;99129;-77
2023/11/11 11:46:41;;;;;;;46.70;28.50;;;;;;;8.94;100.00;99168.48;105529;1260;99018;-76
2023/11/11 11:49:27;;;;;;;51.30;29.80;;;;;;;8.96;100.00;99170.81;105631;1260;97973;-77
2023/11/11 11:52:13;;;;;;;50.50;30.50;;;;;;;8.98;100.00;99171.58;105543;1258;98407;-76
2023/11/11 11:54:58;;;;;;;53.40;30.20;;;;;;;8.98;100.00;99169.52;105429;1267;101322;-77
2023/11/11 11:57:55;;;;;;;43.60;28.70;;;;;;;8.98;100.00;99167.39;105402;1257;100329;-77
2023/11/11 12:00:40;;;;;;;46.00;27.20;;;;;;;8.97;100.00;99166.55;105442;1259;97900;-76
2023/11/11 12:03:26;;;;;;;49.80;29.70;;;;;;;8.96;100.00;99166.30;105495;1259;98073;-77
2023/11/11 12:06:11;;;;;;;48.90;28.60;;;;;;;8.95;100.00;99166.63;105464;1260;97887;-76
2023/11/11 12:09:01;;;;;;;46.70;28.50;;;;;;;8.94;100.00;99162.44;105525;1258;101387;-77
2023/11/11 12:11:46;;;;;;;47.60;29.40;;;;;;;8.96;100.00;99159.15;105465;1260;100532;-76
2023/11/11 12:14:32;;;;;;;49.40;30.70;;;;;;;9.00;100.00;99160.29;105538;1259;99059;-77
2023/11/11 12:17:18;;;;;;;48.80;29.00;;;;;;;9.02;100.00;99159.20;105536;1260;98040;-77
2023/11/11 12:20:04;;;;;;;45.00;28.30;;;;;;;9.06;100.00;99162.02;105626;1260;98031;-77
2023/11/11 12:22:49;;;;;;;45.70;28.80;;;;;;;9.14;100.00;99161.16;105613;1257;102469;-77
2023/11/11 12:25:41;;;;;;;49.90;28.60;;;;;;;9.25;100.00;99167.07;105610;1260;99188;-77
2023/11/11 12:28:28;;;;;;;49.40;29.70;;;;;;;9.30;100.00;99169.48;105677;1259;99057;-78
2023/11/11 12:31:13;;;;;;;47.00;29.60;;;;;;;9.28;100.00;99167.80;105548;1260;98689;-77
2023/11/11 12:33:59;;;;;;;45.60;28.70;;;;;;;9.26;100.00;99169.04;105677;1258;98542;-77
2023/11/11 12:36:47;;;;;;;50.80;29.90;;;;;;;9.23;100.00;99171.73;105809;1260;101334;-79